Landels-Hill Big Creek Reserve Entrance, California Weather observations

Data are for 10 minute period ending at time listed.
 Day   Time   Solar   Ave.   Ave.  Ave.  Vector  Max.   Baro.   Total    
  of    of     Rad.   Air    Rel.  Wind   Wind   Wind  Press.  Precip.   
Year   Day            Temp.  Hum.  Speed  Dir.   Gust                    
2016   (PST)  Kw/m2    F      %     mph   deg.    mph    mb.     in.     
-------------------------------------------------------------------------
 268   21:00   0.00   58.4    77    0.7    21     2.2   1012.8    0.00 
 268   21:10   0.00   58.3    77    0.5    17     1.9   1012.8    0.00 
 268   21:20   0.00   58.2    76    1.0    63     3.4   1012.8    0.00 
 268   21:30   0.00   57.9    79    0.5   218     2.6   1012.9    0.00 
 268   21:40   0.00   57.4    82    0.6    27     2.3   1012.9    0.00 
 268   21:50   0.00   57.2    83    1.0    20     3.1   1012.8    0.00 
 268   22:00   0.00   57.4    81    0.5    62     2.2   1012.9    0.00 
 268   22:10   0.00   57.1    80    0.4     5     2.0   1012.9    0.00 
 268   22:20   0.00   57.9    77    1.5    20     4.6   1012.7    0.00 
 268   22:30   0.00   60.7    66    1.5    12     4.6   1012.7    0.00 
 268   22:40   0.00   60.2    70    1.0    23     2.6   1012.8    0.00 
 268   22:50   0.00   60.1    68    0.8     4     2.0   1012.8    0.00 
 268   23:00   0.00   59.1    71    0.3    20     1.5   1012.9    0.00 
 268   23:10   0.00   58.2    74    0.4    48     2.0   1013.0    0.00 
 268   23:20   0.00   57.4    76    0.3   354     1.6   1013.0    0.00 
 268   23:30   0.00   57.1    78    0.2    36     1.2   1012.9    0.00 
 268   23:40   0.00   56.7    79    0.5    32     1.9   1012.9    0.00 
 268   23:50   0.00   56.7    79    1.1    23     2.9   1012.9    0.00 
 269    0:00   0.00   57.0    77    0.8    19     2.3   1012.9    0.00 
 269    0:10   0.00   56.8    77    0.9    12     4.0   1013.1    0.00 
 269    0:20   0.00   58.6    69    2.3    30     4.5   1013.0    0.00 
 269    0:30   0.00   60.0    67    1.1    22     4.0   1012.9    0.00 
 269    0:40   0.00   58.9    71    0.5   354     2.1   1012.8    0.00 
 269    0:50   0.00   57.7    77    0.5   193     2.3   1012.9    0.00 
 269    1:00   0.00   56.9    80    0.1    50     1.1   1012.9    0.00 
 269    1:10   0.00   56.4    80    1.2    16     4.2   1012.7    0.00 
 269    1:20   0.00   58.2    69    1.9    36     4.4   1012.7    0.00 
 269    1:30   0.00   60.4    63    0.9    11     3.4   1012.7    0.00 
 269    1:40   0.00   61.1    60    1.6    32     4.5   1012.6    0.00 
 269    1:50   0.00   60.7    66    0.4   295     1.6   1012.5    0.00 
 269    2:00   0.00   58.6    74    1.1    35     4.8   1012.4    0.00 
 269    2:10   0.00   63.0    54    2.7    52     5.9   1012.2    0.00 
 269    2:20   0.00   65.1    49    2.8    44     6.9   1012.0    0.00 
 269    2:30   0.00   61.9    64    1.4     5     4.6   1011.9    0.00 
 269    2:40   0.00   62.6    55    1.2    41     4.4   1011.8    0.00 
 269    2:50   0.00   61.0    62    0.6   260     3.9   1011.7    0.00 
 269    3:00   0.00   59.8    65    1.2    17     3.4   1011.7    0.00 
 269    3:10   0.00   61.7    56    2.0    26     4.3   1011.6    0.00 
 269    3:20   0.00   63.2    52    1.9    28     5.3   1011.5    0.00 
 269    3:30   0.00   63.9    51    3.1    29     6.4   1011.4    0.00 
 269    3:40   0.00   64.3    50    3.1    38     6.0   1011.4    0.00 
 269    3:50   0.00   64.4    50    2.0    16     6.2   1011.4    0.00 
 269    4:00   0.00   63.8    51    2.3    34     6.4   1011.3    0.00 
 269    4:10   0.00   64.4    50    1.2    28     4.7   1011.4    0.00 
 269    4:20   0.00   61.6    62    0.6    22     3.4   1011.5    0.00 
 269    4:30   0.00   61.4    57    1.4    50     4.1   1011.7    0.00 
 269    4:40   0.00   62.7    53    1.2    30     5.0   1011.7    0.00 
 269    4:50   0.00   63.2    51    2.4    20     7.5   1011.7    0.00 
 269    5:00   0.00   64.3    49    2.3    29     6.9   1011.6    0.00 
 269    5:10   0.00   62.7    57    2.4    40     7.5   1011.5    0.00 
 269    5:20   0.00   63.3    51    1.4    39     5.3   1011.6    0.00 
 269    5:30   0.00   62.3    57    0.6   311     3.0   1011.8    0.00 
 269    5:40   0.00   60.1    62    1.6     6     3.5   1012.0    0.00 
 269    5:50   0.00   59.7    60    3.1    14     5.9   1012.0    0.00 
 269    6:00   0.01   60.6    60    1.7    30     3.9   1012.3    0.00 
 269    6:10   0.01   60.1    60    2.4    39     5.3   1012.4    0.00 
 269    6:20   0.01   62.4    51    2.2    50     6.1   1012.4    0.00 
 269    6:30   0.01   63.0    54    1.2    22     5.0   1012.5    0.00 
 269    6:40   0.01   62.8    51    2.2    30     5.6   1012.6    0.00 
 269    6:50   0.01   64.0    48    2.3    30     6.1   1012.7    0.00 
 269    7:00   0.01   63.3    51    1.2    30     3.2   1012.7    0.00 
 269    7:10   0.01   62.5    52    1.8    29     3.9   1012.8    0.00 
 269    7:20   0.01   62.1    58    2.3    36     7.2   1013.0    0.00 
 269    7:30   0.01   61.5    57    1.4    29     4.7   1013.1    0.00 
 269    7:40   0.01   60.1    67    1.4     8     3.3   1013.2    0.00 
 269    7:50   0.03   60.0    66    1.3    18     2.6   1013.3    0.00 
 269    8:00   0.03   59.8    64    1.4    18     3.8   1013.3    0.00 
 269    8:10   0.03   58.8    68    1.3   357     3.6   1013.4    0.00 
 269    8:20   0.03   58.4    70    0.9   353     2.6   1013.5    0.00 
 269    8:30   0.03   58.8    71    0.5     8     2.7   1013.5    0.00 
 269    8:40   0.03   59.8    73    0.8   358     2.1   1013.4    0.00 
 269    8:50   0.03   60.5    72    0.4   344     2.3   1013.4    0.00 
 269    9:00   0.03   61.5    73    1.2   169     6.1   1013.3    0.00 
 269    9:10   0.03   62.8    69    1.4   150     4.5   1013.3    0.00 
 269    9:20   0.03   64.7    64    0.6   115     2.8   1013.3    0.00 
 269    9:30   0.20   66.5    60    0.8   166     2.6   1013.2    0.00 
 269    9:40   0.51   69.3    55    0.5   179     2.3   1013.1    0.00 
 269    9:50   0.56   73.0    50    0.6   182     3.0   1013.2    0.00 
 269   10:00   0.59   74.9    47    0.7   152     2.5   1013.6    0.00 
 269   10:10   0.61   76.2    44    1.4   186     4.5   1013.8    0.00 
 269   10:20   0.62   73.3    48    1.9   169     6.1   1013.8    0.00 
 269   10:30   0.64   72.7    51    1.4   203     3.4   1013.8    0.00 
 269   10:40   0.65   70.8    55    1.6   204     5.9   1013.9    0.00 
 269   10:50   0.67   68.4    61    2.3   198     4.5   1013.9    0.00 
 269   11:00   0.68   68.7    61    2.0   205     4.7   1014.0    0.00 
 269   11:10   0.69   68.2    61    2.9   187     5.3   1014.1    0.00 
 269   11:20   0.70   69.1    62    1.8   166     5.3   1014.1    0.00 
 269   11:30   0.71   70.8    60    1.6   210     4.0   1013.9    0.00 
 269   11:40   0.72   71.3    60    2.2   203     4.8   1013.7    0.00 
 269   11:50   0.72   73.0    56    2.2   197     6.1   1013.5    0.00 
 269   12:00   0.73   71.3    60    2.2   198     6.7   1013.6    0.00 
 269   12:10   0.73   72.8    56    2.5   205     5.5   1013.4    0.00 
 269   12:20   0.73   70.7    59    2.4   201     4.5   1013.6    0.00 
 269   12:30   0.73   73.8    50    1.3   191     3.4   1013.6    0.00 
 269   12:40   0.73   74.6    51    2.2   202     4.2   1013.7    0.00 
 269   12:50   0.72   72.3    56    2.3   208     4.5   1013.7    0.00 
 269   13:00   0.71   73.7    51    1.1   177     2.7   1013.7    0.00 
 269   13:10   0.71   76.4    47    1.6   190     3.0   1013.7    0.00 
 269   13:20   0.70   76.8    44    1.8   206     3.5   1013.6    0.00 
 269   13:30   0.69   76.9    42    1.8   175     3.7   1013.5    0.00 
 269   13:40   0.67   78.0    39    1.3   206     3.1   1013.4    0.00 
 269   13:50   0.63   80.2    36    1.0   206     3.7   1013.3    0.00 
 269   14:00   0.61   80.7    35    1.2   195     3.1   1013.2    0.00 
 269   14:10   0.60   80.7    35    1.5   199     3.4   1013.1    0.00 
 269   14:20   0.59   80.7    35    1.6   209     3.4   1012.9    0.00 
 269   14:30   0.56   80.5    35    1.5   211     2.9   1012.8    0.00 
 269   14:40   0.54   81.4    35    1.6   203     4.1   1012.6    0.00 
 269   14:50   0.52   80.9    35    2.1   184     4.4   1012.5    0.00 
 269   15:00   0.50   80.5    34    2.4   171     4.5   1012.5    0.00 
 269   15:10   0.47   78.5    36    3.1   168     5.3   1012.4    0.00 
 269   15:20   0.45   77.9    42    1.6   187     3.6   1012.4    0.00 
 269   15:30   0.43   78.0    44    1.3   239     3.7   1012.2    0.00 
 269   15:40   0.40   77.6    40    2.0   195     5.3   1012.1    0.00 
 269   15:50   0.36   77.1    38    3.0   180     6.0   1012.0    0.00 
 269   16:00   0.32   77.1    40    1.1   256     3.2   1011.9    0.00 
 269   16:10   0.28   77.6    39    0.8   270     3.4   1011.8    0.00 
 269   16:20   0.24   77.9    39    0.7   279     2.7   1011.7    0.00 
 269   16:30   0.20   77.8    41    0.3   303     1.3   1011.7    0.00 
 269   16:40   0.17   75.7    44    0.4   330     1.2   1011.6    0.00 
 269   16:50   0.14   75.6    45    0.1   316     0.9   1011.7    0.00 
 269   17:00   0.11   74.3    48    0.2   294     1.3   1011.8    0.00 
 269   17:10   0.10   72.5    50    0.4   280     1.4   1011.8    0.00 
 269   17:20   0.02   70.1    55    0.1     3     1.2   1011.7    0.00 
 269   17:30   0.02   68.8    57    0.8    13     3.7   1011.7    0.00 
 269   17:40   0.02   68.8    54    2.4   359     3.9   1011.5    0.00 
 269   17:50   0.01   68.6    54    2.0    15     4.1   1011.2    0.00 
 269   18:00   0.01   68.3    54    0.3     2     1.7   1011.0    0.00 
 269   18:10   0.01   67.7    54    0.9    17     3.1   1011.0    0.00 
 269   18:20   0.00   67.9    53    1.1    33     2.9   1011.0    0.00 
 269   18:30   0.00   67.9    52    1.8    38     4.3   1010.9    0.00 
 269   18:40   0.00   68.4    51    1.9    34     4.4   1010.9    0.00 
 269   18:50   0.00   68.3    50    1.4    44     4.5   1010.9    0.00 
 269   19:00   0.00   67.8    50    1.4    25     3.6   1011.0    0.00 
 269   19:10   0.00   67.2    51    1.6    45     3.9   1011.1    0.00 
 269   19:20   0.00   67.2    49    1.6    42     4.8   1011.1    0.00 
 269   19:30   0.00   67.2    48    1.9    33     6.7   1011.1    0.00 
 269   19:40   0.00   66.9    48    1.8    36     5.0   1011.1    0.00 
 269   19:50   0.00   66.6    46    2.1    34     4.5   1011.1    0.00 
 269   20:00   0.00   66.4    45    2.3    41     5.2   1011.2    0.00 
 269   20:10   0.00   66.3    44    2.4    40     5.1   1011.1    0.00 
 269   20:20   0.00   66.4    42    1.9    40     4.2   1011.2    0.00 
 269   20:30   0.00   66.6    41    2.3    36     4.6   1011.2    0.00 
 269   20:40   0.00   66.3    41    2.3    54     5.0   1011.2    0.00 
 269   20:50   0.00   65.8    41    1.9    41     5.3   1011.2    0.00 

Return to Big Creek Reserve Entrance graphs page.


Western Regional Climate Center,wrcc@dri.edu